Time;durP1;ratioP1;P1;durP2;ratioP2;P2;SDS_P1;SDS_P2;PMS_P1;PMS_P2;Temp;Humidity;BMP_temperature;BMP_pressure;BME280_temperature;BME280_humidity;BME280_pressure;Samples;Min_cycle;Max_cycle;Signal;HPM_P1;HPM_P2
2023/01/27 00:00:06;;;;;;;38.17;15.50;;;2.60;99.90;;;;;;5005789;28;20080;-65
2023/01/27 00:02:32;;;;;;;42.25;16.08;;;2.50;99.90;;;;;;5006332;28;20033;-64
2023/01/27 00:04:58;;;;;;;40.45;14.82;;;2.60;99.90;;;;;;5005000;28;20069;-67
2023/01/27 00:07:24;;;;;;;44.30;16.30;;;2.60;99.90;;;;;;5003117;28;20690;-64
2023/01/27 00:09:50;;;;;;;39.13;17.13;;;2.60;99.90;;;;;;4998141;28;20060;-62
2023/01/27 00:15:09;;;;;;;47.65;14.43;;;2.60;99.90;;;;;;5000495;28;20091;-65
2023/01/27 00:17:34;;;;;;;37.95;14.18;;;2.50;99.90;;;;;;5007936;28;20492;-64
2023/01/27 00:20:01;;;;;;;39.33;14.50;;;2.50;99.90;;;;;;5008907;28;20132;-65
2023/01/27 00:25:11;;;;;;;35.25;14.00;;;2.50;99.90;;;;;;5002825;28;20053;-64
2023/01/27 00:27:36;;;;;;;28.70;12.98;;;2.50;99.90;;;;;;5006932;28;20029;-64
2023/01/27 00:30:03;;;;;;;33.80;13.65;;;2.60;99.90;;;;;;5006693;28;20096;-65
2023/01/27 00:35:17;;;;;;;27.60;12.30;;;2.70;99.90;;;;;;5001875;28;20613;-64
2023/01/27 00:37:44;;;;;;;40.75;13.73;;;2.70;99.90;;;;;;5004250;28;20080;-64
2023/01/27 00:40:15;;;;;;;36.30;14.15;;;2.80;99.90;;;;;;4999728;28;20018;-64
2023/01/27 00:42:40;;;;;;;35.95;12.38;;;2.80;99.90;;;;;;5005415;28;20026;-67
2023/01/27 00:47:51;;;;;;;28.65;11.00;;;2.80;99.90;;;;;;5006814;28;20044;-65
2023/01/27 00:50:18;;;;;;;28.92;12.20;;;2.80;99.90;;;;;;5007908;28;20053;-66
2023/01/27 00:52:44;;;;;;;28.35;11.48;;;2.90;99.90;;;;;;5008678;28;20025;-65
2023/01/27 00:55:10;;;;;;;40.03;12.10;;;2.90;99.90;;;;;;5004388;28;20030;-65
2023/01/27 00:57:36;;;;;;;35.50;11.70;;;2.90;99.90;;;;;;5008510;28;20034;-65
2023/01/27 01:00:03;;;;;;;26.60;11.95;;;2.90;99.90;;;;;;5006026;28;20026;-65
2023/01/27 01:02:29;;;;;;;27.95;11.77;;;2.90;99.90;;;;;;5005494;28;20056;-65
2023/01/27 01:04:55;;;;;;;30.38;11.38;;;2.90;99.90;;;;;;5006040;28;20058;-66
2023/01/27 01:07:20;;;;;;;36.95;11.85;;;2.90;99.90;;;;;;4947966;28;20926;-65
2023/01/27 01:09:46;;;;;;;29.85;11.18;;;2.90;99.90;;;;;;5003903;28;20113;-64
2023/01/27 01:12:11;;;;;;;36.28;11.63;;;2.90;99.90;;;;;;5005750;28;20058;-67
2023/01/27 01:14:37;;;;;;;27.67;11.88;;;2.90;99.90;;;;;;5004427;28;20034;-64
2023/01/27 01:17:03;;;;;;;38.03;11.70;;;2.90;99.90;;;;;;5001650;28;20073;-63
2023/01/27 01:19:30;;;;;;;26.58;10.45;;;2.90;99.90;;;;;;5003292;28;20553;-67
2023/01/27 01:21:56;;;;;;;31.58;10.98;;;2.90;99.90;;;;;;4997957;28;20049;-63
2023/01/27 01:24:22;;;;;;;32.60;12.05;;;2.90;99.90;;;;;;4998208;28;20017;-66
2023/01/27 01:26:47;;;;;;;29.17;11.73;;;2.90;99.90;;;;;;4997944;28;20039;-64
2023/01/27 01:29:13;;;;;;;26.10;11.15;;;2.90;99.90;;;;;;4998591;28;20034;-66
2023/01/27 01:31:39;;;;;;;28.60;10.10;;;2.90;99.90;;;;;;4999479;28;20037;-67
2023/01/27 01:34:04;;;;;;;30.45;11.30;;;2.90;99.90;;;;;;5001797;28;20557;-67
2023/01/27 01:36:30;;;;;;;30.27;11.73;;;2.90;99.90;;;;;;5000393;28;20030;-66
2023/01/27 01:38:56;;;;;;;31.65;10.20;;;2.90;99.90;;;;;;4998869;28;20046;-66
2023/01/27 01:41:23;;;;;;;38.85;10.27;;;2.90;99.90;;;;;;4999615;28;20165;-64
2023/01/27 01:43:49;;;;;;;32.40;10.68;;;2.90;99.90;;;;;;4999380;28;20058;-66
2023/01/27 01:46:16;;;;;;;25.38;9.60;;;2.90;99.90;;;;;;4997922;28;20030;-67
2023/01/27 01:49:02;;;;;;;28.38;10.82;;;2.80;99.90;;;;;;5005885;28;20030;-67
2023/01/27 01:51:33;;;;;;;25.95;9.15;;;2.80;99.90;;;;;;5005757;28;20050;-65
2023/01/27 01:54:11;;;;;;;27.13;9.55;;;2.80;99.90;;;;;;5003788;28;20029;-66
2023/01/27 01:56:52;;;;;;;21.65;8.75;;;2.80;99.90;;;;;;5004734;28;20494;-66
2023/01/27 01:59:32;;;;;;;20.55;8.82;;;2.80;99.90;;;;;;5006148;28;20113;-66
2023/01/27 02:02:04;;;;;;;23.00;9.00;;;2.80;99.90;;;;;;5003291;28;20547;-66
2023/01/27 02:04:35;;;;;;;25.67;8.23;;;2.80;99.90;;;;;;5004688;28;20038;-66
2023/01/27 02:07:04;;;;;;;26.63;9.65;;;2.80;99.90;;;;;;5007342;28;20034;-66
2023/01/27 02:09:29;;;;;;;21.63;9.15;;;2.80;99.90;;;;;;5003444;28;20038;-67
2023/01/27 02:11:57;;;;;;;25.13;8.85;;;2.80;99.90;;;;;;4999751;28;20030;-66
2023/01/27 02:14:22;;;;;;;18.67;7.93;;;2.90;99.90;;;;;;5004845;28;20041;-65
2023/01/27 02:16:48;;;;;;;27.70;9.15;;;2.80;99.90;;;;;;4996110;28;20071;-65
2023/01/27 02:19:24;;;;;;;19.70;8.98;;;2.80;99.90;;;;;;4984439;28;20582;-66
2023/01/27 02:21:51;;;;;;;22.55;9.25;;;2.80;99.90;;;;;;5001427;28;20034;-65
2023/01/27 02:24:18;;;;;;;26.30;8.85;;;2.80;99.90;;;;;;5000482;28;20687;-66
2023/01/27 02:26:45;;;;;;;27.52;9.70;;;2.80;99.90;;;;;;5001500;28;20057;-67
2023/01/27 02:29:13;;;;;;;25.52;9.77;;;2.80;99.90;;;;;;5000479;28;20025;-66
2023/01/27 02:31:40;;;;;;;23.50;9.07;;;2.80;99.90;;;;;;4999289;28;20110;-66
2023/01/27 02:34:09;;;;;;;20.83;8.90;;;2.80;99.90;;;;;;5000556;28;20052;-62
2023/01/27 02:36:44;;;;;;;24.55;7.80;;;2.80;99.90;;;;;;5002364;28;20040;-66
2023/01/27 02:39:14;;;;;;;26.80;9.20;;;2.80;99.90;;;;;;5004200;28;20026;-64
2023/01/27 02:41:43;;;;;;;19.00;8.00;;;2.80;99.90;;;;;;4999455;28;20484;-66
2023/01/27 02:44:09;;;;;;;15.80;7.93;;;2.80;99.90;;;;;;4998324;28;20510;-65
2023/01/27 02:46:35;;;;;;;18.95;7.93;;;2.80;99.90;;;;;;5005900;28;20575;-67
2023/01/27 02:49:02;;;;;;;20.40;7.45;;;2.70;99.90;;;;;;5009677;28;20041;-66
2023/01/27 02:51:28;;;;;;;22.27;8.05;;;2.70;99.90;;;;;;5007571;28;20080;-66
2023/01/27 02:53:54;;;;;;;13.95;6.20;;;2.70;99.90;;;;;;5006958;28;20057;-66
2023/01/27 02:56:19;;;;;;;17.77;6.80;;;2.70;99.90;;;;;;5003911;28;20030;-66
2023/01/27 02:58:45;;;;;;;16.45;6.57;;;2.80;99.90;;;;;;5004030;28;20050;-66
2023/01/27 03:01:11;;;;;;;16.30;5.95;;;2.70;99.90;;;;;;5008521;28;20065;-66
2023/01/27 03:03:42;;;;;;;14.63;6.30;;;2.80;99.90;;;;;;5009634;28;20507;-67
2023/01/27 03:06:09;;;;;;;12.32;5.90;;;2.70;99.90;;;;;;5010247;28;20045;-65
2023/01/27 03:08:34;;;;;;;12.57;5.63;;;2.80;99.90;;;;;;5010308;28;20018;-67
2023/01/27 03:11:00;;;;;;;12.43;5.63;;;2.70;99.90;;;;;;4998706;28;20029;-66
2023/01/27 03:13:26;;;;;;;9.13;4.88;;;2.70;99.90;;;;;;5001601;28;20498;-65
2023/01/27 03:18:37;;;;;;;13.15;5.28;;;2.70;99.90;;;;;;4991572;28;20061;-67
2023/01/27 03:21:05;;;;;;;11.15;4.88;;;2.70;99.90;;;;;;5008501;28;20038;-67
2023/01/27 03:23:34;;;;;;;12.77;6.03;;;2.70;99.90;;;;;;5007813;28;20160;-65
2023/01/27 03:26:04;;;;;;;12.35;5.50;;;2.70;99.90;;;;;;5002496;28;20033;-66
2023/01/27 03:28:30;;;;;;;10.77;4.85;;;2.70;99.90;;;;;;5008808;28;20091;-66
2023/01/27 03:31:04;;;;;;;13.57;4.80;;;2.70;99.90;;;;;;5008179;28;20109;-66
2023/01/27 03:33:30;;;;;;;13.27;4.75;;;2.70;99.90;;;;;;5002654;28;20037;-66
2023/01/27 03:46:53;;;;;;;10.90;4.40;;;2.60;99.90;;;;;;5008107;28;20113;-66
2023/01/27 03:49:19;;;;;;;9.90;4.35;;;2.60;99.90;;;;;;5008360;28;20112;-66
2023/01/27 03:51:44;;;;;;;12.27;5.30;;;2.60;99.90;;;;;;5003035;28;20057;-66
2023/01/27 03:54:10;;;;;;;8.88;4.35;;;2.60;99.90;;;;;;5008145;28;20034;-67
2023/01/27 03:56:35;;;;;;;7.78;4.15;;;2.60;99.90;;;;;;5010772;28;20021;-67
2023/01/27 03:59:01;;;;;;;12.85;5.93;;;2.60;99.90;;;;;;5009282;28;20061;-66
2023/01/27 04:01:26;;;;;;;10.50;4.82;;;2.60;99.90;;;;;;5008794;28;20452;-64
2023/01/27 04:07:01;;;;;;;;;;;2.60;99.90;;;;;;5009346;28;20052;-67
2023/01/27 04:09:35;;;;;;;11.70;4.75;;;2.60;99.90;;;;;;5008179;28;19949;-67
2023/01/27 04:12:05;;;;;;;9.52;4.88;;;2.60;99.90;;;;;;5009059;28;20038;-66
2023/01/27 04:14:33;;;;;;;10.73;4.55;;;2.70;99.90;;;;;;5008101;28;20045;-67
2023/01/27 04:17:11;;;;;;;9.20;4.63;;;2.60;99.90;;;;;;4998067;28;20032;-66
2023/01/27 04:19:37;;;;;;;7.60;4.38;;;2.50;99.90;;;;;;4982920;28;20128;-66
2023/01/27 04:22:04;;;;;;;11.05;4.03;;;2.50;99.90;;;;;;5001204;28;20033;-67
2023/01/27 04:24:30;;;;;;;10.25;4.80;;;2.50;99.90;;;;;;5007725;28;20037;-66
2023/01/27 04:27:03;;;;;;;13.20;4.57;;;2.50;99.90;;;;;;5005227;28;20492;-66
2023/01/27 04:29:31;;;;;;;8.00;4.47;;;2.50;99.90;;;;;;5006161;28;20381;-67
2023/01/27 04:31:57;;;;;;;8.80;4.03;;;2.50;99.90;;;;;;5005042;28;20026;-66
2023/01/27 04:34:24;;;;;;;11.32;4.47;;;2.50;99.90;;;;;;5003623;28;20041;-65
2023/01/27 04:36:51;;;;;;;7.78;4.22;;;2.50;99.90;;;;;;5004768;28;20030;-67
2023/01/27 04:39:17;;;;;;;13.65;4.63;;;2.50;99.90;;;;;;5005129;28;20037;-66
2023/01/27 04:41:43;;;;;;;11.32;4.47;;;2.50;99.90;;;;;;5002774;28;20153;-66
2023/01/27 04:44:09;;;;;;;9.27;3.97;;;2.50;99.90;;;;;;5004672;28;20026;-65
2023/01/27 04:46:35;;;;;;;7.45;4.22;;;2.50;99.90;;;;;;4998474;28;20032;-66
2023/01/27 04:49:01;;;;;;;6.95;4.28;;;2.50;99.90;;;;;;5003618;28;20108;-67
2023/01/27 04:51:27;;;;;;;11.40;4.45;;;2.50;99.90;;;;;;4997193;28;20045;-66
2023/01/27 04:53:53;;;;;;;10.27;4.28;;;2.50;99.90;;;;;;4998887;28;20483;-66
2023/01/27 04:56:31;;;;;;;8.05;3.72;;;2.50;99.90;;;;;;5002286;28;20082;-66
2023/01/27 04:58:59;;;;;;;9.75;5.10;;;2.50;99.90;;;;;;5000011;28;20026;-66
2023/01/27 05:01:25;;;;;;;10.27;4.28;;;2.50;99.90;;;;;;5004253;28;20033;-66
2023/01/27 05:03:50;;;;;;;11.70;4.72;;;2.50;99.90;;;;;;5003626;28;20084;-67
2023/01/27 05:06:16;;;;;;;8.93;3.95;;;2.40;99.90;;;;;;5001416;28;20399;-67
2023/01/27 05:08:42;;;;;;;10.82;3.33;;;2.50;99.90;;;;;;4998035;28;20064;-67
2023/01/27 05:11:08;;;;;;;11.43;5.22;;;2.50;99.90;;;;;;4996992;28;20033;-66
2023/01/27 05:13:34;;;;;;;9.27;4.60;;;2.50;99.90;;;;;;5003294;28;20029;-65
2023/01/27 05:16:05;;;;;;;7.95;4.00;;;2.50;99.90;;;;;;5001608;28;20027;-66
2023/01/27 05:18:30;;;;;;;9.57;3.83;;;2.50;99.90;;;;;;4987320;28;20049;-67
2023/01/27 05:21:00;;;;;;;10.63;5.03;;;2.50;99.90;;;;;;5002691;28;20026;-66
2023/01/27 05:23:35;;;;;;;8.15;4.25;;;2.50;99.90;;;;;;5005200;28;20030;-66
2023/01/27 05:26:21;;;;;;;11.70;4.63;;;2.50;99.90;;;;;;5002394;28;20057;-67
2023/01/27 05:28:48;;;;;;;7.85;4.22;;;2.50;99.90;;;;;;5016722;28;20030;-66
2023/01/27 05:31:17;;;;;;;7.88;3.75;;;2.60;99.90;;;;;;5007850;28;20101;-66
2023/01/27 05:33:43;;;;;;;8.43;3.85;;;2.60;99.90;;;;;;5004572;28;20809;-67
2023/01/27 05:36:12;;;;;;;7.63;4.10;;;2.60;99.90;;;;;;5008551;28;20044;-65
2023/01/27 05:38:38;;;;;;;6.57;3.58;;;2.60;99.90;;;;;;5001993;28;20018;-66
2023/01/27 05:41:06;;;;;;;10.57;4.15;;;2.60;99.90;;;;;;5001536;28;20475;-67
2023/01/27 05:43:33;;;;;;;8.65;4.50;;;2.60;99.90;;;;;;5007389;28;20547;-66
2023/01/27 05:46:10;;;;;;;8.38;3.75;;;2.70;99.90;;;;;;5007775;28;20045;-66
2023/01/27 05:48:44;;;;;;;10.45;4.00;;;2.60;99.90;;;;;;5000798;28;20122;-66
2023/01/27 05:51:10;;;;;;;8.88;4.47;;;2.60;99.90;;;;;;5005963;28;20646;-67
2023/01/27 05:53:36;;;;;;;9.77;5.18;;;2.60;99.90;;;;;;5008622;28;20034;-66
2023/01/27 05:56:03;;;;;;;10.25;5.47;;;2.70;99.90;;;;;;5008483;28;20439;-66
2023/01/27 05:58:30;;;;;;;11.48;5.57;;;2.70;99.90;;;;;;5008674;28;20032;-66
2023/01/27 06:01:04;;;;;;;8.55;4.65;;;2.70;99.90;;;;;;5004785;28;20479;-66
2023/01/27 06:03:30;;;;;;;11.40;5.72;;;2.70;99.90;;;;;;5004905;28;20034;-66
2023/01/27 06:05:56;;;;;;;8.88;3.55;;;2.70;99.90;;;;;;5006367;28;20107;-66
2023/01/27 06:08:23;;;;;;;8.82;5.00;;;2.70;99.90;;;;;;5006665;28;20057;-66
2023/01/27 06:10:49;;;;;;;10.75;4.60;;;2.70;99.90;;;;;;5007138;28;20037;-66
2023/01/27 06:13:15;;;;;;;7.22;3.78;;;2.70;99.90;;;;;;5007290;28;20499;-67
2023/01/27 06:15:45;;;;;;;5.95;3.03;;;2.70;99.90;;;;;;5009896;28;20033;-66
2023/01/27 06:18:11;;;;;;;7.85;3.97;;;2.70;99.90;;;;;;4987544;28;20061;-66
2023/01/27 06:20:37;;;;;;;10.05;3.95;;;2.70;99.90;;;;;;5002939;28;20029;-66
2023/01/27 06:23:04;;;;;;;9.70;4.22;;;2.70;99.90;;;;;;4999636;28;20415;-66
2023/01/27 06:25:30;;;;;;;10.73;3.83;;;2.70;99.90;;;;;;5001238;28;20057;-66
2023/01/27 06:27:56;;;;;;;8.45;4.38;;;2.70;99.90;;;;;;5000747;28;20030;-66
2023/01/27 06:30:22;;;;;;;6.05;3.03;;;2.70;99.90;;;;;;5001249;28;20034;-66
2023/01/27 06:32:48;;;;;;;7.35;3.70;;;2.80;99.90;;;;;;4999894;28;20030;-66
2023/01/27 06:35:13;;;;;;;10.43;3.90;;;2.80;99.90;;;;;;5002395;28;20140;-65
2023/01/27 06:37:39;;;;;;;9.68;4.30;;;2.80;99.90;;;;;;5001444;28;20026;-67
2023/01/27 06:40:05;;;;;;;6.13;3.42;;;2.70;99.90;;;;;;4998031;28;20048;-67
2023/01/27 06:42:31;;;;;;;8.02;3.50;;;2.70;99.90;;;;;;5000607;28;20058;-66
2023/01/27 06:44:56;;;;;;;6.03;3.05;;;2.80;99.90;;;;;;5000872;28;20054;-67
2023/01/27 06:47:22;;;;;;;9.23;3.72;;;2.70;99.90;;;;;;5000556;28;20022;-66
2023/01/27 06:49:47;;;;;;;6.32;3.35;;;2.80;99.90;;;;;;4999799;28;20032;-66
2023/01/27 06:52:13;;;;;;;6.85;3.70;;;2.80;99.90;;;;;;5002834;28;20058;-66
2023/01/27 06:54:38;;;;;;;7.00;3.70;;;2.70;99.90;;;;;;5003021;28;20034;-67
2023/01/27 06:57:04;;;;;;;10.95;5.25;;;2.70;99.90;;;;;;5006289;28;20096;-66
2023/01/27 06:59:30;;;;;;;5.30;3.30;;;2.70;99.90;;;;;;5006741;28;20022;-66
2023/01/27 07:01:55;;;;;;;8.75;4.43;;;2.80;99.90;;;;;;5004754;28;20036;-65
2023/01/27 07:04:21;;;;;;;7.50;3.83;;;2.70;99.90;;;;;;5008219;28;20034;-66
2023/01/27 07:06:46;;;;;;;7.88;4.22;;;2.70;99.90;;;;;;5007566;28;20029;-67
2023/01/27 07:09:12;;;;;;;7.85;4.32;;;2.70;99.90;;;;;;5007806;28;20036;-66
2023/01/27 07:11:38;;;;;;;6.72;3.70;;;2.70;99.90;;;;;;5009178;28;20041;-66
2023/01/27 07:14:03;;;;;;;6.53;3.63;;;2.80;99.90;;;;;;5007612;28;20046;-67
2023/01/27 07:16:29;;;;;;;7.55;3.42;;;2.80;99.90;;;;;;5009506;28;20021;-67
2023/01/27 07:18:55;;;;;;;8.43;4.22;;;2.70;99.90;;;;;;4989929;28;20038;-67
2023/01/27 07:21:20;;;;;;;7.85;4.38;;;2.80;99.90;;;;;;5009059;28;20475;-66
2023/01/27 07:23:46;;;;;;;9.02;3.95;;;2.80;99.90;;;;;;5010938;28;20045;-66
2023/01/27 07:26:11;;;;;;;7.28;3.47;;;2.80;99.90;;;;;;5008986;28;20036;-65
2023/01/27 07:28:37;;;;;;;6.95;3.60;;;2.80;99.90;;;;;;5010232;28;20030;-66
2023/01/27 07:31:02;;;;;;;6.88;3.15;;;2.80;99.90;;;;;;5005701;28;20053;-65
2023/01/27 07:33:28;;;;;;;8.77;4.18;;;2.80;99.90;;;;;;5006881;28;20029;-67
2023/01/27 07:35:54;;;;;;;8.88;4.05;;;2.80;99.90;;;;;;5011276;28;20033;-67
2023/01/27 07:38:20;;;;;;;5.90;3.70;;;2.80;99.90;;;;;;5007932;28;20110;-67
2023/01/27 07:40:45;;;;;;;7.18;3.60;;;2.80;99.90;;;;;;5002962;28;20057;-67
2023/01/27 07:43:11;;;;;;;8.70;3.95;;;2.90;99.90;;;;;;5000417;28;20431;-67
2023/01/27 07:45:36;;;;;;;6.40;3.42;;;2.90;99.90;;;;;;5007541;28;20065;-67
2023/01/27 07:48:07;;;;;;;7.28;4.32;;;3.00;99.90;;;;;;5005486;28;20108;-67
2023/01/27 07:50:34;;;;;;;6.38;3.60;;;3.00;99.90;;;;;;5008245;28;20321;-67
2023/01/27 07:53:04;;;;;;;7.30;3.78;;;3.10;99.90;;;;;;5006890;28;20049;-67
2023/01/27 07:55:31;;;;;;;6.88;3.58;;;3.20;99.90;;;;;;5005839;28;20038;-67
2023/01/27 07:57:56;;;;;;;8.20;3.88;;;3.20;99.90;;;;;;5006625;28;20136;-66
2023/01/27 08:00:23;;;;;;;7.70;3.45;;;3.20;99.90;;;;;;5001912;28;20022;-66
2023/01/27 08:02:55;;;;;;;7.03;3.25;;;3.30;99.90;;;;;;5002968;28;20026;-65
2023/01/27 08:05:24;;;;;;;5.45;3.03;;;3.20;99.90;;;;;;5007873;28;20022;-65
2023/01/27 08:07:50;;;;;;;5.53;3.45;;;3.30;99.90;;;;;;5010725;28;20060;-66
2023/01/27 08:10:17;;;;;;;4.68;3.03;;;3.30;99.90;;;;;;4999992;28;20022;-65
2023/01/27 08:12:44;;;;;;;5.38;3.30;;;3.30;99.90;;;;;;5006758;28;20026;-66
2023/01/27 08:15:10;;;;;;;8.50;5.03;;;3.30;99.90;;;;;;5008445;28;20048;-67
2023/01/27 08:17:35;;;;;;;11.40;5.78;;;3.30;99.90;;;;;;5006084;28;20022;-66
2023/01/27 08:20:01;;;;;;;7.82;4.35;;;3.30;99.90;;;;;;4990006;28;20045;-67
2023/01/27 08:22:28;;;;;;;5.50;3.03;;;3.30;99.90;;;;;;5005706;28;20018;-67
2023/01/27 08:24:54;;;;;;;5.43;3.08;;;3.30;99.90;;;;;;5006459;28;20487;-66
2023/01/27 08:27:20;;;;;;;4.47;2.85;;;3.30;99.90;;;;;;5008473;28;20400;-67
2023/01/27 08:29:46;;;;;;;5.15;2.65;;;3.30;99.90;;;;;;5004756;28;20140;-66
2023/01/27 08:32:11;;;;;;;5.90;2.85;;;3.30;99.90;;;;;;5007122;28;20030;-65
2023/01/27 08:34:38;;;;;;;4.97;2.90;;;3.30;99.90;;;;;;4998909;28;20057;-67
2023/01/27 08:37:04;;;;;;;5.13;2.72;;;3.20;99.90;;;;;;5021159;28;20049;-67
2023/01/27 08:39:30;;;;;;;5.88;3.17;;;3.10;99.90;;;;;;5002691;28;20753;-66
2023/01/27 08:41:56;;;;;;;6.78;3.55;;;3.00;99.90;;;;;;5007194;28;20112;-66
2023/01/27 08:44:23;;;;;;;6.00;2.60;;;3.00;99.90;;;;;;5005491;28;20105;-66
2023/01/27 08:46:48;;;;;;;5.03;2.90;;;3.00;99.90;;;;;;5007350;28;20124;-67
2023/01/27 08:49:14;;;;;;;4.60;2.40;;;2.90;99.90;;;;;;5002995;28;20121;-66
2023/01/27 08:51:40;;;;;;;6.90;3.15;;;3.00;99.90;;;;;;5008828;28;20014;-66
2023/01/27 08:54:06;;;;;;;5.57;3.05;;;3.10;99.90;;;;;;5007761;28;20125;-67
2023/01/27 08:56:32;;;;;;;4.38;2.35;;;3.20;99.90;;;;;;5007516;28;20026;-66
2023/01/27 08:58:57;;;;;;;5.75;2.75;;;3.30;99.90;;;;;;5003765;28;20042;-67
2023/01/27 09:01:23;;;;;;;5.93;3.10;;;3.40;99.90;;;;;;5007244;28;20029;-66
2023/01/27 09:03:48;;;;;;;3.83;1.95;;;3.40;99.90;;;;;;5006605;28;20041;-66
2023/01/27 09:06:15;;;;;;;3.65;2.25;;;3.50;99.90;;;;;;5007450;28;20036;-66
2023/01/27 09:08:43;;;;;;;3.22;1.95;;;3.60;99.90;;;;;;5006622;28;20124;-67
2023/01/27 09:11:14;;;;;;;3.30;2.25;;;3.70;99.90;;;;;;5003793;28;20457;-66
2023/01/27 09:13:40;;;;;;;6.95;3.85;;;3.70;99.90;;;;;;5000563;28;20056;-66
2023/01/27 09:16:07;;;;;;;4.00;2.33;;;3.80;99.90;;;;;;5007626;28;20025;-65
2023/01/27 09:18:33;;;;;;;3.75;2.10;;;3.80;99.90;;;;;;5001806;28;20048;-66
2023/01/27 09:21:05;;;;;;;5.57;3.22;;;3.90;99.90;;;;;;4984869;28;20487;-67
2023/01/27 09:23:32;;;;;;;3.33;1.98;;;3.90;99.90;;;;;;5008191;28;20022;-66
2023/01/27 09:25:58;;;;;;;3.92;2.25;;;4.10;99.90;;;;;;5003083;28;20063;-66
2023/01/27 09:28:24;;;;;;;3.33;1.92;;;4.20;99.90;;;;;;5008272;28;20021;-66
2023/01/27 09:30:49;;;;;;;4.57;2.95;;;4.30;99.90;;;;;;5004670;28;20042;-66
2023/01/27 09:33:15;;;;;;;2.38;1.33;;;4.40;99.90;;;;;;5003217;28;20044;-66
2023/01/27 09:36:01;;;;;;;10.77;6.18;;;4.40;99.90;;;;;;5008706;28;20471;-66
2023/01/27 09:38:30;;;;;;;1.67;1.25;;;4.70;99.90;;;;;;5005766;28;20052;-67
2023/01/27 09:41:14;;;;;;;2.58;1.70;;;4.80;99.90;;;;;;5002096;28;20863;-67
2023/01/27 09:44:21;;;;;;;4.35;1.95;;;4.90;99.90;;;;;;5002851;28;20076;-67
2023/01/27 09:47:05;;;;;;;2.05;1.10;;;5.00;99.90;;;;;;4985258;28;20026;-65
2023/01/27 09:50:02;;;;;;;2.50;1.33;;;5.00;99.90;;;;;;5003699;28;20037;-64
2023/01/27 09:52:49;;;;;;;1.38;1.15;;;5.20;99.90;;;;;;4986808;28;20528;-65
2023/01/27 09:55:32;;;;;;;1.98;1.10;;;5.30;99.90;;;;;;5004718;28;20105;-64
2023/01/27 09:58:19;;;;;;;1.85;1.15;;;5.40;99.90;;;;;;5000604;28;20033;-64
2023/01/27 10:01:01;;;;;;;2.13;1.20;;;5.50;99.90;;;;;;5001291;28;20022;-65
2023/01/27 10:03:45;;;;;;;2.25;1.55;;;5.40;99.90;;;;;;5000246;28;20033;-64
2023/01/27 10:06:38;;;;;;;0.88;0.75;;;5.30;99.90;;;;;;5000009;28;20504;-64
2023/01/27 10:09:12;;;;;;;4.68;2.45;;;5.30;99.90;;;;;;5003922;28;20026;-65
2023/01/27 10:12:03;;;;;;;4.93;1.48;;;5.40;99.90;;;;;;4997689;28;20022;-65
2023/01/27 10:14:29;;;;;;;1.70;0.88;;;5.70;99.90;;;;;;5002678;28;20030;-66
2023/01/27 10:16:57;;;;;;;1.23;0.80;;;5.90;99.90;;;;;;4999384;28;20034;-65
2023/01/27 10:20:19;;;;;;;1.70;1.38;;;6.10;99.90;;;;;;4984438;28;20030;-68
2023/01/27 10:22:50;;;;;;;1.52;1.10;;;6.30;99.90;;;;;;4980799;28;20042;-66
2023/01/27 10:25:39;;;;;;;1.70;1.25;;;6.10;99.90;;;;;;4983559;28;20042;-66
2023/01/27 10:28:15;;;;;;;1.55;1.05;;;6.10;99.90;;;;;;4994081;28;20117;-65
2023/01/27 10:30:58;;;;;;;2.22;1.50;;;5.90;99.90;;;;;;4999769;28;20495;-65
2023/01/27 10:33:51;;;;;;;1.30;0.93;;;5.80;99.90;;;;;;5000272;28;20021;-67
2023/01/27 10:36:27;;;;;;;1.70;0.95;;;5.70;99.90;;;;;;5004618;28;20555;-64
2023/01/27 10:38:52;;;;;;;2.42;1.45;;;5.70;99.90;;;;;;5005671;28;20488;-65
2023/01/27 10:41:42;;;;;;;5.15;3.25;;;5.60;99.90;;;;;;5007504;28;20058;-65
2023/01/27 10:44:30;;;;;;;2.45;1.27;;;5.60;99.90;;;;;;5003945;28;20022;-64
2023/01/27 10:47:15;;;;;;;2.33;1.60;;;5.50;99.90;;;;;;5005464;28;20034;-67
2023/01/27 10:49:40;;;;;;;2.50;1.42;;;5.60;99.90;;;;;;4998753;28;20491;-65
2023/01/27 10:52:16;;;;;;;1.50;1.13;;;5.70;99.90;;;;;;5008920;28;20057;-65
2023/01/27 10:54:57;;;;;;;0.73;0.70;;;5.90;99.90;;;;;;5005320;28;20182;-65
2023/01/27 10:57:44;;;;;;;1.55;1.08;;;5.80;99.90;;;;;;5003619;28;20105;-66
2023/01/27 11:00:13;;;;;;;1.67;1.23;;;5.90;99.90;;;;;;5007264;28;20034;-63
2023/01/27 11:02:46;;;;;;;1.40;1.10;;;5.80;99.90;;;;;;5001180;28;20037;-65
2023/01/27 11:05:19;;;;;;;1.73;0.77;;;5.60;99.90;;;;;;5008442;28;20048;-66
2023/01/27 11:07:55;;;;;;;2.25;1.48;;;5.70;99.90;;;;;;5008156;28;20049;-65
2023/01/27 11:10:22;;;;;;;1.98;0.80;;;5.70;99.90;;;;;;5008975;28;20045;-66
2023/01/27 11:12:51;;;;;;;1.88;1.30;;;5.80;99.90;;;;;;5007639;28;20037;-65
2023/01/27 11:15:26;;;;;;;2.72;1.40;;;5.70;99.90;;;;;;5008207;28;20042;-66
2023/01/27 11:17:56;;;;;;;4.32;2.03;;;5.70;99.90;;;;;;5008381;28;20072;-65
2023/01/27 11:20:42;;;;;;;1.40;1.30;;;5.60;99.90;;;;;;4988908;28;20523;-65
2023/01/27 11:23:21;;;;;;;2.78;1.75;;;5.60;99.90;;;;;;5007245;28;20484;-66
2023/01/27 11:25:56;;;;;;;2.47;1.70;;;5.40;99.90;;;;;;5001427;28;20034;-65
2023/01/27 11:28:36;;;;;;;2.88;1.60;;;5.50;99.90;;;;;;5007476;28;20480;-65
2023/01/27 11:31:25;;;;;;;3.13;1.90;;;5.60;99.90;;;;;;5005870;28;20030;-66
2023/01/27 11:34:06;;;;;;;4.00;1.75;;;5.70;99.90;;;;;;5009028;28;20044;-66
2023/01/27 11:36:33;;;;;;;2.83;1.70;;;5.80;99.90;;;;;;5002232;28;20041;-65
2023/01/27 11:39:03;;;;;;;2.78;2.00;;;5.90;99.90;;;;;;5007183;28;20045;-64
2023/01/27 11:41:31;;;;;;;3.00;1.83;;;6.00;99.90;;;;;;5007544;28;20472;-66
2023/01/27 11:43:57;;;;;;;2.65;1.88;;;6.00;99.90;;;;;;4998072;28;20022;-66
2023/01/27 11:46:23;;;;;;;4.53;1.83;;;6.20;99.90;;;;;;5008443;28;20403;-66
2023/01/27 11:48:56;;;;;;;3.28;1.83;;;6.30;99.90;;;;;;5009063;28;20030;-65
2023/01/27 11:51:31;;;;;;;2.67;1.50;;;6.50;99.90;;;;;;5007129;28;20037;-65
2023/01/27 11:54:23;;;;;;;1.50;1.40;;;6.70;99.90;;;;;;5003802;28;20049;-65
2023/01/27 11:56:50;;;;;;;1.30;1.20;;;6.40;99.90;;;;;;5000863;28;20648;-64
2023/01/27 11:59:20;;;;;;;3.15;1.73;;;6.10;99.90;;;;;;5004773;28;20026;-65
2023/01/27 12:02:05;;;;;;;2.15;1.70;;;6.00;99.90;;;;;;5006560;28;20026;-65
2023/01/27 12:04:37;;;;;;;1.75;1.30;;;6.00;99.90;;;;;;5003643;28;20130;-65
2023/01/27 12:07:18;;;;;;;2.78;1.52;;;5.80;99.90;;;;;;5010181;28;20030;-65
2023/01/27 12:09:43;;;;;;;2.65;1.50;;;5.90;99.90;;;;;;4997810;28;20034;-64
2023/01/27 12:12:18;;;;;;;2.13;1.30;;;5.90;99.90;;;;;;5007472;28;20041;-65
2023/01/27 12:14:53;;;;;;;1.95;1.20;;;6.00;99.90;;;;;;5005772;28;20045;-65
2023/01/27 12:17:22;;;;;;;2.33;1.73;;;6.00;99.90;;;;;;5009147;28;20033;-65
2023/01/27 12:19:48;;;;;;;1.98;1.33;;;6.10;99.90;;;;;;4987917;28;20073;-64
2023/01/27 12:22:29;;;;;;;1.65;0.93;;;6.10;99.90;;;;;;5009220;28;20073;-64
2023/01/27 12:24:59;;;;;;;1.40;1.05;;;6.20;99.90;;;;;;5001203;28;20053;-65
2023/01/27 12:27:30;;;;;;;1.88;0.95;;;6.10;99.90;;;;;;5008800;28;20092;-65
2023/01/27 12:30:00;;;;;;;2.30;1.23;;;6.00;99.90;;;;;;5003892;28;20025;-65
2023/01/27 12:32:41;;;;;;;1.23;0.95;;;6.10;99.90;;;;;;5006822;28;20030;-65
2023/01/27 12:35:25;;;;;;;1.42;0.93;;;6.20;99.90;;;;;;5004511;28;20065;-65
2023/01/27 12:38:05;;;;;;;1.20;0.90;;;6.30;99.90;;;;;;5002675;28;20095;-65
2023/01/27 12:40:32;;;;;;;2.08;0.70;;;6.20;99.90;;;;;;5001329;28;20025;-65
2023/01/27 12:43:01;;;;;;;1.35;0.93;;;6.20;99.90;;;;;;5003732;28;20084;-64
2023/01/27 12:45:33;;;;;;;2.63;0.90;;;6.20;99.90;;;;;;5005971;28;20109;-65
2023/01/27 12:48:08;;;;;;;1.23;0.90;;;6.20;99.90;;;;;;5002631;28;20029;-64
2023/01/27 12:50:34;;;;;;;0.75;0.57;;;6.20;99.90;;;;;;5001817;28;20064;-65
2023/01/27 12:53:05;;;;;;;2.58;1.00;;;6.10;99.90;;;;;;5004129;28;20105;-65
2023/01/27 12:55:33;;;;;;;0.75;0.73;;;6.10;99.90;;;;;;5004577;28;20029;-66
2023/01/27 12:57:59;;;;;;;3.60;1.50;;;6.10;99.90;;;;;;5006443;28;20026;-66
2023/01/27 13:00:25;;;;;;;2.35;1.38;;;6.00;99.90;;;;;;5004268;28;20018;-67
2023/01/27 13:02:56;;;;;;;0.88;0.55;;;5.90;99.90;;;;;;5005263;28;20017;-67
2023/01/27 13:05:21;;;;;;;1.35;0.90;;;5.90;99.90;;;;;;5022693;28;20027;-67
2023/01/27 13:07:51;;;;;;;1.27;1.02;;;5.90;99.90;;;;;;5005475;28;20022;-67
2023/01/27 13:10:22;;;;;;;3.13;1.10;;;6.10;99.90;;;;;;5005794;28;20614;-67
2023/01/27 13:12:53;;;;;;;1.92;1.70;;;6.20;99.90;;;;;;5006180;28;20053;-67
2023/01/27 13:15:24;;;;;;;1.83;1.05;;;6.10;99.90;;;;;;5002757;28;20500;-67
2023/01/27 13:17:55;;;;;;;1.20;0.80;;;6.20;99.90;;;;;;5004123;28;20090;-68
2023/01/27 13:20:55;;;;;;;1.15;1.05;;;6.20;99.90;;;;;;4989144;28;20504;-67
2023/01/27 13:23:33;;;;;;;2.58;1.02;;;6.10;99.90;;;;;;4996179;28;20515;-65
2023/01/27 13:26:08;;;;;;;2.97;1.55;;;6.10;99.90;;;;;;5001038;28;20117;-67
2023/01/27 13:29:13;;;;;;;0.95;0.70;;;6.00;99.90;;;;;;5004317;28;20030;-67
2023/01/27 13:32:00;;;;;;;4.40;2.33;;;5.80;99.90;;;;;;4997905;28;21001;-64
2023/01/27 13:34:39;;;;;;;3.33;1.65;;;5.70;99.90;;;;;;5008221;28;20060;-65